Front Runner — 3FRP5 — position and weather

sailwx.info

Track history (hours):
 
Tides and Currents Weather Stations Pressure Air Temp Water Temp Dewpoint Dewpoint Depression Visibility Wind Speed Wind Dir Waves Ship Positions

Front Runner

Last reported at 2015-Aug-24 23:25 UTC. Time now 2015-Aug-28 09:32 UTC.
Position N 35°28' E 139°39'.

Length 190 m; draft 6.2 m.

Type: Cargo ship. MMSI: 357941000.

Date/timePositionNaut miles runAvg speedWind from/ knotsBaromVisibWave heightAir tempDewpointWater temp
2015-Aug-24 23:25N 35°28' E 139°39'0 0.0
2015-Aug-24 22:31N 35°28' E 139°39'0 0.0
2015-Aug-24 21:31N 35°28' E 139°39'0 0.0
2015-Aug-24 20:31N 35°28' E 139°39'0 0.0
2015-Aug-24 19:31N 35°28' E 139°39'0 0.0
2015-Aug-24 18:31N 35°28' E 139°39'0 0.0
2015-Aug-24 17:31N 35°28' E 139°39'0 0.0
2015-Aug-24 16:31N 35°28' E 139°39'0 0.0
2015-Aug-24 15:31N 35°28' E 139°39'0 0.0
2015-Aug-24 14:31N 35°28' E 139°39'0 0.0
2015-Aug-24 13:31N 35°28' E 139°39'0 0.0
2015-Aug-24 12:31N 35°28' E 139°39'0 0.0
2015-Aug-24 11:31N 35°28' E 139°39'0 0.0
2015-Aug-24 10:31N 35°28' E 139°39'0 0.0
2015-Aug-24 09:31N 35°28' E 139°39'0 0.0
2015-Aug-24 08:31N 35°28' E 139°39'0 0.0
2015-Aug-24 07:31N 35°28' E 139°39'0 0.0
2015-Aug-24 06:31N 35°28' E 139°39'0 0.0
2015-Aug-24 05:31N 35°28' E 139°39'0 0.0
2015-Aug-24 04:31N 35°28' E 139°39'0 0.0
2015-Aug-24 03:31N 35°28' E 139°39'0 0.0
2015-Aug-24 02:31N 35°28' E 139°39'0 0.0
2015-Aug-24 01:31N 35°28' E 139°39'0 0.0
2015-Aug-24 00:31N 35°28' E 139°39'0 0.0
2015-Aug-23 23:31N 35°28' E 139°39'0 0.0
2015-Aug-23 22:31N 35°28' E 139°39'0 0.0
2015-Aug-23 21:31N 35°28' E 139°39'0 0.0
2015-Aug-23 20:31N 35°28' E 139°39'0 0.0
2015-Aug-23 19:31N 35°28' E 139°39'0 0.0
2015-Aug-23 18:31N 35°28' E 139°39'0 0.0
2015-Aug-23 17:31N 35°28' E 139°39'0 0.0
2015-Aug-23 16:28N 35°28' E 139°39'0 0.0
2015-Aug-23 15:31N 35°28' E 139°39'0 0.0
2015-Aug-23 14:31N 35°28' E 139°39'0 0.0
2015-Aug-23 13:31N 35°28' E 139°39'0 0.0
2015-Aug-23 12:31N 35°28' E 139°39'0 0.0
2015-Aug-23 11:31N 35°28' E 139°39'0 0.0
2015-Aug-23 10:31N 35°28' E 139°39'0 0.0
2015-Aug-23 09:28N 35°28' E 139°39'0 0.0
2015-Aug-23 08:31N 35°28' E 139°39'0 0.0
2015-Aug-23 07:31N 35°28' E 139°39'0 0.0
2015-Aug-23 06:31N 35°28' E 139°39'0 0.0
2015-Aug-23 05:31N 35°28' E 139°39'0 0.0
2015-Aug-23 04:28N 35°28' E 139°39'0 0.0
2015-Aug-23 03:31N 35°28' E 139°39'0 0.0
2015-Aug-23 02:31N 35°28' E 139°39'0 0.0
2015-Aug-23 01:31N 35°28' E 139°39'0 0.0
2015-Aug-23 00:31N 35°28' E 139°39'0 0.0
2015-Aug-22 23:33N 35°28' E 139°39'5 4.7
2015-Aug-22 22:33N 35°26' E 139°44'0 0.1
2015-Aug-22 21:33N 35°26' E 139°44'0 0.0
2015-Aug-22 20:33N 35°26' E 139°44'0 0.0
2015-Aug-22 19:33N 35°26' E 139°44'0 0.0
2015-Aug-22 18:33N 35°26' E 139°44'0 0.1
2015-Aug-22 17:33N 35°26' E 139°44'0 0.0
2015-Aug-22 16:33N 35°26' E 139°44'0 0.0
2015-Aug-22 15:33N 35°26' E 139°44'0 0.0
2015-Aug-22 14:33N 35°26' E 139°44'0 0.1
2015-Aug-22 13:33N 35°26' E 139°44'0 0.2
2015-Aug-22 12:33N 35°26' E 139°44'0 0.0
2015-Aug-22 11:33N 35°26' E 139°44'0 0.0
2015-Aug-22 10:33N 35°26' E 139°44'0 0.0
2015-Aug-22 09:33N 35°26' E 139°44'0 0.1
2015-Aug-22 08:33N 35°26' E 139°44'0 0.0
2015-Aug-22 07:33N 35°26' E 139°44'0 0.1
2015-Aug-22 06:33N 35°26' E 139°44'0 0.0
2015-Aug-22 05:33N 35°26' E 139°44'1 0.7
2015-Aug-22 04:33N 35°25' E 139°44'8 8.1
2015-Aug-22 03:33N 35°17' E 139°45'9 8.7
2015-Aug-22 02:33N 35°09' E 139°46'7 6.9
2015-Aug-22 01:33N 35°02' E 139°42'8 7.7
2015-Aug-22 00:33N 34°55' E 139°43'7 7.4
2015-Aug-21 23:33N 34°50' E 139°50'1010.1
2015-Aug-21 22:33N 34°51' E 140°02'1010.1
2015-Aug-21 21:33N 34°56' E 140°13'10 9.6
2015-Aug-21 20:33N 35°01' E 140°24'8 8.4
2015-Aug-21 19:33N 35°07' E 140°31'8 8.2
2015-Aug-21 18:32N 35°13' E 140°38'8 7.8
2015-Aug-21 17:33N 35°19' E 140°44'8 7.6
2015-Aug-21 16:33N 35°25' E 140°50'9 8.7
2015-Aug-21 15:33N 35°31' E 140°56'10 9.7
2015-Aug-21 14:32N 35°39' E 141°04'8 8.4
2015-Aug-21 13:33N 35°47' E 141°04'9 8.9
2015-Aug-21 12:31N 35°56' E 141°02'9 9.4
2015-Aug-21 11:30N 36°06' E 141°01'9 9.7
2015-Aug-21 10:33N 36°15' E 140°59'41 0.9
2015-Aug-19 13:23N 36°56' E 140°53'  
Track history (hours):
 
Tides and Currents Weather Stations Pressure Air Temp Water Temp Dewpoint Dewpoint Depression Visibility Wind Speed Wind Dir Waves Ship Positions

Front Runner

Last reported at 2015-Aug-24 23:25 UTC. Time now 2015-Aug-28 09:32 UTC.
Position N 35°28' E 139°39'.

Length 190 m; draft 6.2 m.

Type: Cargo ship. MMSI: 357941000.

Date/timePositionNaut miles runAvg speedWind from/ knotsBaromVisibWave heightAir tempDewpointWater temp
2015-Aug-24 23:25N 35°28' E 139°39'0 0.0
2015-Aug-24 22:31N 35°28' E 139°39'0 0.0
2015-Aug-24 21:31N 35°28' E 139°39'0 0.0
2015-Aug-24 20:31N 35°28' E 139°39'0 0.0
2015-Aug-24 19:31N 35°28' E 139°39'0 0.0
2015-Aug-24 18:31N 35°28' E 139°39'0 0.0
2015-Aug-24 17:31N 35°28' E 139°39'0 0.0
2015-Aug-24 16:31N 35°28' E 139°39'0 0.0
2015-Aug-24 15:31N 35°28' E 139°39'0 0.0
2015-Aug-24 14:31N 35°28' E 139°39'0 0.0
2015-Aug-24 13:31N 35°28' E 139°39'0 0.0
2015-Aug-24 12:31N 35°28' E 139°39'0 0.0
2015-Aug-24 11:31N 35°28' E 139°39'0 0.0
2015-Aug-24 10:31N 35°28' E 139°39'0 0.0
2015-Aug-24 09:31N 35°28' E 139°39'0 0.0
2015-Aug-24 08:31N 35°28' E 139°39'0 0.0
2015-Aug-24 07:31N 35°28' E 139°39'0 0.0
2015-Aug-24 06:31N 35°28' E 139°39'0 0.0
2015-Aug-24 05:31N 35°28' E 139°39'0 0.0
2015-Aug-24 04:31N 35°28' E 139°39'0 0.0
2015-Aug-24 03:31N 35°28' E 139°39'0 0.0
2015-Aug-24 02:31N 35°28' E 139°39'0 0.0
2015-Aug-24 01:31N 35°28' E 139°39'0 0.0
2015-Aug-24 00:31N 35°28' E 139°39'0 0.0
2015-Aug-23 23:31N 35°28' E 139°39'0 0.0
2015-Aug-23 22:31N 35°28' E 139°39'0 0.0
2015-Aug-23 21:31N 35°28' E 139°39'0 0.0
2015-Aug-23 20:31N 35°28' E 139°39'0 0.0
2015-Aug-23 19:31N 35°28' E 139°39'0 0.0
2015-Aug-23 18:31N 35°28' E 139°39'0 0.0
2015-Aug-23 17:31N 35°28' E 139°39'0 0.0
2015-Aug-23 16:28N 35°28' E 139°39'0 0.0
2015-Aug-23 15:31N 35°28' E 139°39'0 0.0
2015-Aug-23 14:31N 35°28' E 139°39'0 0.0
2015-Aug-23 13:31N 35°28' E 139°39'0 0.0
2015-Aug-23 12:31N 35°28' E 139°39'0 0.0
2015-Aug-23 11:31N 35°28' E 139°39'0 0.0
2015-Aug-23 10:31N 35°28' E 139°39'0 0.0
2015-Aug-23 09:28N 35°28' E 139°39'0 0.0
2015-Aug-23 08:31N 35°28' E 139°39'0 0.0
2015-Aug-23 07:31N 35°28' E 139°39'0 0.0
2015-Aug-23 06:31N 35°28' E 139°39'0 0.0
2015-Aug-23 05:31N 35°28' E 139°39'0 0.0
2015-Aug-23 04:28N 35°28' E 139°39'0 0.0
2015-Aug-23 03:31N 35°28' E 139°39'0 0.0
2015-Aug-23 02:31N 35°28' E 139°39'0 0.0
2015-Aug-23 01:31N 35°28' E 139°39'0 0.0
2015-Aug-23 00:31N 35°28' E 139°39'0 0.0
2015-Aug-22 23:33N 35°28' E 139°39'5 4.7
2015-Aug-22 22:33N 35°26' E 139°44'0 0.1
2015-Aug-22 21:33N 35°26' E 139°44'0 0.0
2015-Aug-22 20:33N 35°26' E 139°44'0 0.0
2015-Aug-22 19:33N 35°26' E 139°44'0 0.0
2015-Aug-22 18:33N 35°26' E 139°44'0 0.1
2015-Aug-22 17:33N 35°26' E 139°44'0 0.0
2015-Aug-22 16:33N 35°26' E 139°44'0 0.0
2015-Aug-22 15:33N 35°26' E 139°44'0 0.0
2015-Aug-22 14:33N 35°26' E 139°44'0 0.1
2015-Aug-22 13:33N 35°26' E 139°44'0 0.2
2015-Aug-22 12:33N 35°26' E 139°44'0 0.0
2015-Aug-22 11:33N 35°26' E 139°44'0 0.0
2015-Aug-22 10:33N 35°26' E 139°44'0 0.0
2015-Aug-22 09:33N 35°26' E 139°44'0 0.1
2015-Aug-22 08:33N 35°26' E 139°44'0 0.0
2015-Aug-22 07:33N 35°26' E 139°44'0 0.1
2015-Aug-22 06:33N 35°26' E 139°44'0 0.0
2015-Aug-22 05:33N 35°26' E 139°44'1 0.7
2015-Aug-22 04:33N 35°25' E 139°44'8 8.1
2015-Aug-22 03:33N 35°17' E 139°45'9 8.7
2015-Aug-22 02:33N 35°09' E 139°46'7 6.9
2015-Aug-22 01:33N 35°02' E 139°42'8 7.7
2015-Aug-22 00:33N 34°55' E 139°43'7 7.4
2015-Aug-21 23:33N 34°50' E 139°50'1010.1
2015-Aug-21 22:33N 34°51' E 140°02'1010.1
2015-Aug-21 21:33N 34°56' E 140°13'10 9.6
2015-Aug-21 20:33N 35°01' E 140°24'8 8.4
2015-Aug-21 19:33N 35°07' E 140°31'8 8.2
2015-Aug-21 18:32N 35°13' E 140°38'8 7.8
2015-Aug-21 17:33N 35°19' E 140°44'8 7.6
2015-Aug-21 16:33N 35°25' E 140°50'9 8.7
2015-Aug-21 15:33N 35°31' E 140°56'10 9.7
2015-Aug-21 14:32N 35°39' E 141°04'8 8.4
2015-Aug-21 13:33N 35°47' E 141°04'9 8.9
2015-Aug-21 12:31N 35°56' E 141°02'9 9.4
2015-Aug-21 11:30N 36°06' E 141°01'9 9.7
2015-Aug-21 10:33N 36°15' E 140°59'41 0.9
2015-Aug-19 13:23N 36°56' E 140°53'  

Dump ship's entire track history